createdAt,value
2018-07-07T00:00:17.522Z,69.92
2018-07-07T00:02:44.797Z,70.25
2018-07-07T00:05:12.137Z,69.67
2018-07-07T00:07:40.159Z,69.52
2018-07-07T00:10:08.300Z,69.78
2018-07-07T00:12:35.642Z,71.86
2018-07-07T00:15:03.113Z,72.52
2018-07-07T00:17:30.504Z,72.20
2018-07-07T00:19:57.862Z,73.12
2018-07-07T00:22:25.278Z,73.21
2018-07-07T00:24:52.551Z,73.37
2018-07-07T00:27:19.949Z,74.24
2018-07-07T00:29:47.795Z,73.88
2018-07-07T00:32:15.164Z,73.81
2018-07-07T00:34:42.598Z,74.09
2018-07-07T00:37:09.908Z,75.44
2018-07-07T00:39:37.288Z,75.03
2018-07-07T00:42:04.644Z,75.65
2018-07-07T00:44:31.940Z,75.09
2018-07-07T00:46:59.356Z,75.40
2018-07-07T00:49:26.723Z,75.59
2018-07-07T00:51:54.071Z,75.30
2018-07-07T00:54:21.394Z,75.30
2018-07-07T00:56:48.672Z,75.89
2018-07-07T00:59:16.020Z,75.88
2018-07-07T01:01:43.327Z,75.96
2018-07-07T01:04:10.652Z,75.99
2018-07-07T01:06:38.103Z,74.97
2018-07-07T01:09:05.579Z,75.04
2018-07-07T01:11:32.975Z,74.86
2018-07-07T01:14:00.328Z,74.70
2018-07-07T01:16:27.652Z,73.66
2018-07-07T01:18:55.005Z,73.01
2018-07-07T01:21:22.791Z,73.60
2018-07-07T01:23:50.458Z,72.78
2018-07-07T01:26:17.843Z,73.67
2018-07-07T01:28:45.225Z,72.84
2018-07-07T01:31:12.550Z,73.41
2018-07-07T01:33:39.887Z,73.44
2018-07-07T01:36:12.467Z,72.83
2018-07-07T01:38:44.852Z,72.61
2018-07-07T01:41:12.141Z,73.39
2018-07-07T01:43:39.462Z,73.48
2018-07-07T01:46:06.830Z,73.02
2018-07-07T01:48:34.157Z,73.78
2018-07-07T01:51:01.454Z,73.30
2018-07-07T01:53:28.788Z,72.99
2018-07-07T01:55:56.153Z,73.99
2018-07-07T01:58:23.464Z,73.81
2018-07-07T02:00:50.695Z,73.10
2018-07-07T02:03:18.019Z,73.81
2018-07-07T02:05:45.354Z,73.38
2018-07-07T02:08:12.686Z,73.17
2018-07-07T02:10:40.052Z,73.54
2018-07-07T02:13:07.396Z,74.09
2018-07-07T02:15:34.761Z,73.95
2018-07-07T02:18:02.007Z,73.55
2018-07-07T02:20:29.344Z,74.23
2018-07-07T02:22:56.614Z,73.68
2018-07-07T02:25:23.926Z,74.31
2018-07-07T02:27:51.211Z,74.34
2018-07-07T02:30:18.533Z,74.64
2018-07-07T02:32:45.873Z,74.38
2018-07-07T02:35:13.217Z,74.51
2018-07-07T02:37:40.515Z,74.32
2018-07-07T02:40:07.903Z,73.95
2018-07-07T02:42:35.214Z,74.39
2018-07-07T02:45:02.517Z,74.39
2018-07-07T02:47:29.835Z,74.51
2018-07-07T02:49:57.420Z,74.60
2018-07-07T02:52:24.764Z,74.86
2018-07-07T02:54:52.140Z,74.24
2018-07-07T02:57:19.408Z,74.43
2018-07-07T02:59:47.053Z,73.59
2018-07-07T03:02:14.407Z,73.70
2018-07-07T03:04:41.782Z,73.66
2018-07-07T03:07:09.108Z,74.40
2018-07-07T03:09:36.406Z,74.31
2018-07-07T03:12:03.738Z,74.76
2018-07-07T03:14:31.189Z,74.14
2018-07-07T03:16:58.565Z,73.86
2018-07-07T03:19:25.915Z,74.71
2018-07-07T03:21:53.199Z,73.89
2018-07-07T03:24:20.555Z,75.11
2018-07-07T03:26:47.883Z,74.29
2018-07-07T03:29:15.171Z,74.50
2018-07-07T03:31:42.580Z,74.78
2018-07-07T03:34:09.886Z,75.03
2018-07-07T03:36:37.230Z,74.09
2018-07-07T03:39:05.671Z,74.58
2018-07-07T03:41:33.002Z,74.86
2018-07-07T03:44:00.255Z,74.76
2018-07-07T03:46:27.683Z,75.32
2018-07-07T03:48:54.931Z,75.32
2018-07-07T03:51:22.215Z,75.57
2018-07-07T03:53:49.537Z,75.32
2018-07-07T03:56:16.815Z,74.81
2018-07-07T03:58:44.170Z,74.68
2018-07-07T04:01:11.568Z,75.46
2018-07-07T04:03:38.842Z,75.18
2018-07-07T04:06:06.123Z,75.23
2018-07-07T04:08:33.458Z,74.91
2018-07-07T04:11:00.773Z,74.67
2018-07-07T04:13:28.063Z,75.37
2018-07-07T04:15:55.337Z,73.99
2018-07-07T04:18:39.636Z,74.72
2018-07-07T04:21:06.961Z,74.67
2018-07-07T04:23:34.775Z,74.56
2018-07-07T04:26:02.365Z,74.92
2018-07-07T04:28:30.154Z,74.34
2018-07-07T04:30:57.694Z,72.57
2018-07-07T04:33:25.663Z,74.90
2018-07-07T04:35:52.960Z,74.76
2018-07-07T04:38:20.320Z,76.10
2018-07-07T04:40:48.184Z,75.79
2018-07-07T04:43:15.852Z,76.37
2018-07-07T04:45:43.261Z,75.96
2018-07-07T04:48:10.615Z,76.14
2018-07-07T04:50:37.961Z,75.53
2018-07-07T04:53:05.640Z,74.75
2018-07-07T04:55:32.975Z,73.22
2018-07-07T04:58:00.335Z,72.60
2018-07-07T05:00:27.801Z,71.73
2018-07-07T05:02:55.137Z,73.35
2018-07-07T05:05:22.427Z,73.34
2018-07-07T05:07:49.749Z,72.72
2018-07-07T05:10:17.098Z,73.57
2018-07-07T05:12:44.467Z,74.34
2018-07-07T05:15:11.757Z,75.20
2018-07-07T05:17:39.097Z,73.18
2018-07-07T05:20:06.512Z,73.39
2018-07-07T05:22:33.770Z,72.99
2018-07-07T05:25:01.480Z,74.54
2018-07-07T05:27:28.760Z,73.11
2018-07-07T05:29:56.067Z,73.41
2018-07-07T05:32:23.395Z,72.55
2018-07-07T05:34:50.695Z,72.72
2018-07-07T05:37:18.014Z,72.53
2018-07-07T05:39:45.486Z,72.62
2018-07-07T05:42:12.761Z,71.95
2018-07-07T05:44:40.100Z,71.67
2018-07-07T05:47:07.959Z,72.10
2018-07-07T05:49:35.416Z,71.06
2018-07-07T05:52:02.874Z,70.61
2018-07-07T05:54:30.164Z,69.94
2018-07-07T05:56:57.574Z,68.36
2018-07-07T05:59:24.915Z,67.87
2018-07-07T06:01:52.192Z,68.40
2018-07-07T06:04:19.625Z,68.08
2018-07-07T06:06:46.929Z,67.92
2018-07-07T06:09:14.354Z,66.80
2018-07-07T06:11:41.735Z,67.24
2018-07-07T06:14:09.023Z,68.49
2018-07-07T06:16:36.321Z,69.34
2018-07-07T06:19:03.610Z,69.60
2018-07-07T06:21:31.040Z,69.55
2018-07-07T06:23:58.335Z,68.59
2018-07-07T06:26:26.024Z,68.10
2018-07-07T06:28:53.331Z,67.95
2018-07-07T06:31:20.661Z,67.88
2018-07-07T06:33:48.097Z,66.86
2018-07-07T06:36:15.498Z,66.66
2018-07-07T06:38:43.051Z,66.11
2018-07-07T06:41:10.367Z,65.74
2018-07-07T06:43:37.797Z,65.92
2018-07-07T06:46:10.355Z,65.71
2018-07-07T06:48:42.854Z,65.90
2018-07-07T06:51:10.085Z,66.14
2018-07-07T06:53:37.523Z,65.79
2018-07-07T07:15:44.913Z,65.59
2018-07-07T07:20:48.315Z,61.58
2018-07-07T07:23:15.575Z,56.97
2018-07-07T07:25:42.818Z,54.59
2018-07-07T07:28:10.086Z,53.87
2018-07-07T07:30:37.399Z,54.07
2018-07-07T07:33:04.911Z,53.53
2018-07-07T07:35:32.199Z,53.00
2018-07-07T07:37:59.489Z,51.44
2018-07-07T07:40:26.841Z,50.66
2018-07-07T07:42:54.124Z,51.01
2018-07-07T07:45:21.541Z,49.43
2018-07-07T07:47:48.890Z,49.34
2018-07-07T07:50:16.192Z,49.87
2018-07-07T07:52:43.483Z,47.78
2018-07-07T07:55:11.004Z,47.41
2018-07-07T07:57:38.245Z,47.95
2018-07-07T08:00:05.560Z,47.92
2018-07-07T08:02:32.870Z,48.02
2018-07-07T08:05:00.241Z,46.18
2018-07-07T08:07:27.972Z,47.49
2018-07-07T08:09:55.296Z,48.20
2018-07-07T08:12:22.747Z,48.91
2018-07-07T08:14:51.738Z,47.82
2018-07-07T08:17:19.112Z,47.85
2018-07-07T08:19:46.426Z,48.77
2018-07-07T08:22:13.730Z,48.24
2018-07-07T08:24:41.093Z,48.57
2018-07-07T08:27:08.417Z,47.80
2018-07-07T08:29:35.916Z,47.59
2018-07-07T08:32:03.263Z,47.22
2018-07-07T08:34:30.666Z,47.32
2018-07-07T08:36:57.905Z,47.80
2018-07-07T08:39:25.263Z,48.04
2018-07-07T08:41:52.682Z,48.83
2018-07-07T08:44:19.931Z,46.45
2018-07-07T08:46:47.266Z,47.02
2018-07-07T08:49:14.575Z,46.72
2018-07-07T08:51:41.912Z,46.19
2018-07-07T08:54:09.217Z,47.18
2018-07-07T08:56:36.502Z,48.22
2018-07-07T08:59:03.971Z,46.76
2018-07-07T09:01:31.268Z,46.60
2018-07-07T09:03:58.629Z,45.52
2018-07-07T09:06:26.074Z,45.43
2018-07-07T09:08:53.493Z,45.93
2018-07-07T09:11:20.858Z,45.16
2018-07-07T09:13:48.150Z,44.68
2018-07-07T09:16:15.595Z,43.64
2018-07-07T09:18:42.841Z,41.77
2018-07-07T09:21:10.171Z,41.37
2018-07-07T09:23:37.509Z,42.96
2018-07-07T09:26:05.059Z,43.49
2018-07-07T09:28:32.355Z,42.01
2018-07-07T09:30:59.995Z,40.84
2018-07-07T09:33:27.347Z,39.95
2018-07-07T09:35:54.652Z,40.22
2018-07-07T09:38:22.038Z,42.38
2018-07-07T09:40:49.400Z,40.58
2018-07-07T09:43:16.728Z,41.99
2018-07-07T09:45:44.063Z,40.89
2018-07-07T09:48:11.358Z,41.19
2018-07-07T09:50:38.655Z,42.43
2018-07-07T09:53:06.032Z,43.29
2018-07-07T09:55:33.371Z,41.68
2018-07-07T09:58:00.631Z,39.13
2018-07-07T10:00:33.729Z,39.05
2018-07-07T10:03:01.011Z,39.70
2018-07-07T10:05:28.240Z,40.54
2018-07-07T10:07:55.530Z,40.76
2018-07-07T10:10:22.843Z,40.44
2018-07-07T10:12:50.231Z,41.20
2018-07-07T10:15:17.534Z,40.51
2018-07-07T10:17:44.829Z,39.76
2018-07-07T10:20:12.191Z,40.96
2018-07-07T10:22:39.449Z,38.97
2018-07-07T10:25:06.723Z,41.04
2018-07-07T10:27:34.073Z,40.60
2018-07-07T10:30:01.418Z,40.02
2018-07-07T10:32:28.744Z,41.64
2018-07-07T10:34:56.338Z,42.04
2018-07-07T10:37:23.658Z,42.60
2018-07-07T10:39:51.061Z,42.82
2018-07-07T10:42:18.312Z,40.63
2018-07-07T10:44:45.617Z,39.51
2018-07-07T10:47:13.004Z,39.17
2018-07-07T10:49:40.615Z,38.49
2018-07-07T10:52:08.163Z,39.39
2018-07-07T10:54:35.562Z,38.92
2018-07-07T10:57:02.800Z,38.62
2018-07-07T10:59:30.138Z,38.80
2018-07-07T11:01:57.334Z,38.29
2018-07-07T11:04:24.657Z,38.42
2018-07-07T11:06:51.946Z,38.23
2018-07-07T11:09:19.209Z,37.75
2018-07-07T11:11:46.539Z,37.30
2018-07-07T11:14:13.812Z,36.42
2018-07-07T11:16:41.035Z,37.98
2018-07-07T11:19:08.343Z,39.50
2018-07-07T11:21:35.699Z,39.54
2018-07-07T11:24:03.117Z,38.96
2018-07-07T11:26:30.427Z,37.49
2018-07-07T11:28:57.690Z,37.15
2018-07-07T11:31:25.003Z,37.19
2018-07-07T11:33:52.334Z,36.94
2018-07-07T11:36:19.650Z,35.48
2018-07-07T11:38:46.880Z,34.92
2018-07-07T11:41:16.333Z,34.87
2018-07-07T11:43:43.926Z,35.52
2018-07-07T11:46:11.312Z,35.30
2018-07-07T11:48:38.726Z,35.88
2018-07-07T11:51:06.146Z,38.73
2018-07-07T11:53:33.420Z,39.06
2018-07-07T11:56:00.704Z,40.43
2018-07-07T11:58:27.985Z,41.62
2018-07-07T12:00:55.334Z,42.97
2018-07-07T12:03:22.645Z,43.07
2018-07-07T12:05:49.986Z,43.98
2018-07-07T12:08:17.333Z,43.57
2018-07-07T12:10:44.583Z,44.07
2018-07-07T12:13:12.046Z,44.08
2018-07-07T12:15:39.366Z,43.51
2018-07-07T12:18:06.637Z,42.12
2018-07-07T12:20:34.028Z,40.99
2018-07-07T12:23:01.259Z,40.73
2018-07-07T12:25:28.562Z,38.82
2018-07-07T12:27:55.904Z,39.14
2018-07-07T12:30:23.255Z,37.63
2018-07-07T12:32:50.575Z,35.79
2018-07-07T12:35:17.860Z,37.35
2018-07-07T12:37:47.200Z,34.49
2018-07-07T12:40:17.457Z,35.59
2018-07-07T12:42:44.779Z,36.03
2018-07-07T12:45:13.624Z,33.56
2018-07-07T12:47:40.867Z,34.21
2018-07-07T12:50:08.249Z,34.20
2018-07-07T12:52:35.751Z,33.13
2018-07-07T12:55:03.189Z,33.80
2018-07-07T12:57:30.495Z,34.99
2018-07-07T12:59:57.775Z,36.91
2018-07-07T13:02:25.048Z,35.42
2018-07-07T13:04:52.303Z,35.68
2018-07-07T13:07:19.600Z,32.41
2018-07-07T13:09:46.920Z,32.69
2018-07-07T13:12:14.216Z,33.04
2018-07-07T13:14:41.483Z,33.28
2018-07-07T13:17:08.847Z,32.03
2018-07-07T13:19:36.122Z,32.45
2018-07-07T13:22:03.476Z,33.54
2018-07-07T13:24:30.809Z,32.39
2018-07-07T13:26:58.228Z,33.26
2018-07-07T13:29:25.553Z,33.53
2018-07-07T13:31:52.962Z,34.01
2018-07-07T13:34:20.369Z,33.62
2018-07-07T13:36:47.688Z,33.14
2018-07-07T13:39:14.949Z,33.38
2018-07-07T13:41:42.211Z,31.25
2018-07-07T13:44:09.551Z,30.73
2018-07-07T13:46:36.843Z,31.83
2018-07-07T13:49:04.098Z,32.77
2018-07-07T13:51:31.435Z,32.31
2018-07-07T13:53:58.799Z,31.85
2018-07-07T13:56:27.667Z,32.54
2018-07-07T13:58:55.207Z,31.87
2018-07-07T14:01:22.563Z,33.59
2018-07-07T14:03:49.888Z,32.62
2018-07-07T14:06:17.185Z,31.54
2018-07-07T14:08:44.498Z,32.43
2018-07-07T14:11:11.778Z,31.27
2018-07-07T14:13:39.106Z,31.81
2018-07-07T14:16:06.514Z,30.64
2018-07-07T14:18:33.874Z,31.63
2018-07-07T14:21:01.158Z,30.32
2018-07-07T14:23:28.499Z,29.96
2018-07-07T14:25:55.866Z,30.74
2018-07-07T14:28:23.135Z,31.16
2018-07-07T14:30:50.460Z,31.67
2018-07-07T14:33:17.777Z,31.48
2018-07-07T14:35:45.044Z,31.87
2018-07-07T14:38:12.305Z,31.79
2018-07-07T14:40:49.608Z,32.68
2018-07-07T14:43:16.932Z,32.00
2018-07-07T14:45:54.405Z,31.78
2018-07-07T14:48:21.712Z,31.07
2018-07-07T14:50:48.932Z,32.59
2018-07-07T14:53:16.238Z,31.38
2018-07-07T14:55:43.492Z,32.34
2018-07-07T14:58:10.988Z,31.11
2018-07-07T15:00:38.224Z,32.86
2018-07-07T15:03:05.533Z,33.87
2018-07-07T15:05:32.884Z,34.22
2018-07-07T15:08:00.253Z,34.55
2018-07-07T15:10:27.589Z,34.49
2018-07-07T15:12:54.882Z,33.52
2018-07-07T15:15:22.175Z,32.87
2018-07-07T15:17:49.464Z,33.62
2018-07-07T15:20:16.788Z,32.69
2018-07-07T15:22:44.176Z,33.75
2018-07-07T15:25:11.546Z,33.37
2018-07-07T15:27:38.957Z,33.51
2018-07-07T15:30:07.150Z,33.69
2018-07-07T15:32:34.570Z,35.68
2018-07-07T15:35:01.883Z,35.87
2018-07-07T15:37:29.225Z,37.02
2018-07-07T15:39:56.494Z,38.83
2018-07-07T15:42:23.885Z,38.80
2018-07-07T15:44:51.196Z,38.61
2018-07-07T15:47:18.419Z,38.84
2018-07-07T15:49:45.713Z,38.39
2018-07-07T15:52:13.053Z,38.50
2018-07-07T15:54:40.303Z,38.60
2018-07-07T15:57:07.608Z,37.84
2018-07-07T15:59:34.941Z,37.61
2018-07-07T16:02:02.260Z,36.85
2018-07-07T16:04:29.581Z,36.98
2018-07-07T16:06:56.895Z,37.25
2018-07-07T16:09:24.178Z,37.17
2018-07-07T16:11:51.434Z,37.26
2018-07-07T16:14:18.799Z,38.68
2018-07-07T16:16:46.154Z,38.21
2018-07-07T16:19:13.436Z,39.42
2018-07-07T16:21:40.817Z,40.32
2018-07-07T16:24:08.172Z,40.49
2018-07-07T16:26:35.750Z,40.52
2018-07-07T16:29:02.971Z,40.13
2018-07-07T16:31:30.263Z,40.10
2018-07-07T16:33:57.647Z,41.06
2018-07-07T16:36:24.990Z,41.82
2018-07-07T16:38:52.313Z,41.47
2018-07-07T16:41:19.611Z,42.72
2018-07-07T16:43:47.022Z,42.69
2018-07-07T16:46:14.486Z,43.69
2018-07-07T16:48:41.875Z,43.07
2018-07-07T16:51:09.792Z,43.74
2018-07-07T16:53:37.062Z,43.69
2018-07-07T16:56:04.815Z,44.68
2018-07-07T16:58:33.156Z,44.68
2018-07-07T17:01:00.424Z,44.48
2018-07-07T17:03:27.739Z,44.69
2018-07-07T17:05:55.060Z,45.03
2018-07-07T17:08:22.608Z,44.61
2018-07-07T17:10:49.959Z,45.32
2018-07-07T17:13:17.321Z,44.44
2018-07-07T17:15:44.618Z,45.28
2018-07-07T17:18:12.070Z,44.80
2018-07-07T17:20:39.373Z,45.04
2018-07-07T17:23:06.761Z,44.79
2018-07-07T17:25:34.134Z,44.69
2018-07-07T17:28:01.710Z,44.54
2018-07-07T17:30:29.107Z,45.53
2018-07-07T17:32:56.849Z,45.18
2018-07-07T17:35:24.469Z,45.97
2018-07-07T17:37:51.798Z,45.30
2018-07-07T17:40:19.076Z,45.40
2018-07-07T17:42:46.515Z,45.31
2018-07-07T17:45:13.986Z,46.53
2018-07-07T17:47:44.719Z,46.13
2018-07-07T17:50:15.632Z,45.85
2018-07-07T17:52:43.125Z,45.85
2018-07-07T17:55:11.450Z,46.17
2018-07-07T17:57:38.802Z,45.91
2018-07-07T18:00:06.373Z,47.25
2018-07-07T18:02:33.687Z,47.16
2018-07-07T18:05:00.981Z,46.68
2018-07-07T18:07:28.445Z,47.13
2018-07-07T18:09:55.836Z,46.73
2018-07-07T18:12:23.287Z,46.37
2018-07-07T18:14:51.492Z,47.11
2018-07-07T18:17:18.820Z,47.68
2018-07-07T18:19:46.116Z,47.01
2018-07-07T18:22:13.498Z,47.74
2018-07-07T18:24:40.841Z,47.62
2018-07-07T18:27:08.178Z,48.62
2018-07-07T18:29:35.839Z,48.66
2018-07-07T18:32:03.083Z,49.01
2018-07-07T18:34:30.315Z,49.13
2018-07-07T18:36:57.670Z,50.06
2018-07-07T18:39:24.965Z,51.25
2018-07-07T18:41:52.245Z,51.36
2018-07-07T18:44:19.554Z,52.64
2018-07-07T18:46:46.847Z,53.16
2018-07-07T18:49:14.273Z,52.73
2018-07-07T18:51:41.662Z,53.67
2018-07-07T18:54:08.948Z,52.87
2018-07-07T18:56:36.277Z,53.47
2018-07-07T18:59:03.574Z,53.46
2018-07-07T19:01:30.906Z,54.62
2018-07-07T19:03:58.189Z,53.85
2018-07-07T19:06:25.489Z,54.68
2018-07-07T19:08:58.374Z,54.68
2018-07-07T19:11:25.702Z,55.05
2018-07-07T19:13:53.058Z,55.16
2018-07-07T19:16:20.335Z,55.67
2018-07-07T19:18:47.745Z,55.69
2018-07-07T19:21:20.711Z,55.55
2018-07-07T19:23:53.861Z,56.10
2018-07-07T19:26:26.761Z,55.54
2018-07-07T19:28:54.022Z,55.86
2018-07-07T19:31:21.517Z,56.86
2018-07-07T19:33:54.450Z,56.23
2018-07-07T19:36:27.665Z,56.86
2018-07-07T19:38:54.942Z,57.94
2018-07-07T19:41:22.305Z,57.92
2018-07-07T19:43:49.774Z,57.81
2018-07-07T19:46:17.203Z,59.04
2018-07-07T19:48:44.414Z,58.98
2018-07-07T19:51:11.818Z,58.89
2018-07-07T19:53:39.177Z,59.51
2018-07-07T19:56:06.466Z,60.21
2018-07-07T19:58:33.727Z,59.86
2018-07-07T20:01:01.015Z,60.01
2018-07-07T20:03:28.400Z,60.16
2018-07-07T20:05:55.716Z,60.51
2018-07-07T20:08:23.044Z,60.71
2018-07-07T20:10:50.384Z,60.90
2018-07-07T20:13:17.687Z,60.74
2018-07-07T20:17:30.030Z,61.09
2018-07-07T20:20:34.444Z,61.32
2018-07-07T20:23:02.919Z,61.90
2018-07-07T20:25:30.263Z,62.07
2018-07-07T20:28:03.573Z,62.54
2018-07-07T20:30:30.961Z,62.75
2018-07-07T20:32:58.247Z,63.06
2018-07-07T20:35:25.551Z,63.26
2018-07-07T20:37:52.872Z,63.43
2018-07-07T20:40:20.146Z,63.69
2018-07-07T20:42:47.504Z,63.69
2018-07-07T20:45:14.819Z,64.11
2018-07-07T20:47:42.217Z,64.44
2018-07-07T20:50:09.595Z,64.01
2018-07-07T20:52:36.921Z,63.95
2018-07-07T20:55:04.213Z,63.82
2018-07-07T20:57:31.497Z,63.93
2018-07-07T20:59:58.756Z,64.16
2018-07-07T21:02:26.061Z,64.27
2018-07-07T21:04:53.354Z,64.12
2018-07-07T21:07:20.724Z,64.58
2018-07-07T21:09:47.982Z,64.36
2018-07-07T21:12:15.287Z,64.82
2018-07-07T21:14:43.363Z,64.75
2018-07-07T21:17:13.754Z,65.07
2018-07-07T21:19:41.038Z,64.88
2018-07-07T21:22:11.639Z,64.78
2018-07-07T21:24:44.008Z,64.94
2018-07-07T21:27:11.292Z,64.94
2018-07-07T21:29:38.609Z,65.12
2018-07-07T21:32:06.043Z,65.41
2018-07-07T21:34:33.229Z,66.21
2018-07-07T21:37:00.535Z,66.04
2018-07-07T21:39:27.898Z,66.42
2018-07-07T21:41:55.238Z,66.29
2018-07-07T21:44:22.574Z,66.90
2018-07-07T21:46:49.918Z,67.23
2018-07-07T21:49:17.087Z,67.12
2018-07-07T21:51:44.422Z,67.44
2018-07-07T21:54:11.706Z,67.47
2018-07-07T21:56:39.085Z,67.67
2018-07-07T21:59:12.088Z,67.06
2018-07-07T22:01:56.904Z,67.01
2018-07-07T22:04:30.613Z,67.28
2018-07-07T22:07:04.075Z,67.70
2018-07-07T22:09:32.535Z,68.03
2018-07-07T22:11:59.986Z,68.01
2018-07-07T22:14:27.318Z,67.94
2018-07-07T22:16:54.631Z,67.81
2018-07-07T22:19:22.020Z,67.22
2018-07-07T22:21:56.299Z,67.43
2018-07-07T22:24:23.863Z,67.01
2018-07-07T22:26:56.483Z,67.28
2018-07-07T22:29:23.952Z,67.47
2018-07-07T22:31:51.350Z,68.29
2018-07-07T22:34:18.664Z,68.05
2018-07-07T22:36:45.982Z,66.85
2018-07-07T22:39:13.377Z,65.86
2018-07-07T22:41:52.880Z,65.77
2018-07-07T22:44:20.535Z,65.27
2018-07-07T22:46:47.894Z,65.47
2018-07-07T22:49:15.387Z,64.57
2018-07-07T22:51:42.790Z,64.82
2018-07-07T22:54:10.284Z,65.24
2018-07-07T22:56:37.669Z,68.64
2018-07-07T22:59:05.063Z,70.37
2018-07-07T23:01:32.340Z,70.25
2018-07-07T23:03:59.726Z,69.97
2018-07-07T23:06:27.088Z,70.51
2018-07-07T23:08:54.395Z,68.69
2018-07-07T23:11:21.967Z,66.85
2018-07-07T23:13:49.459Z,68.98
2018-07-07T23:16:16.978Z,69.87
2018-07-07T23:18:44.344Z,69.44
2018-07-07T23:21:11.659Z,69.25
2018-07-07T23:23:38.959Z,68.37
2018-07-07T23:26:06.195Z,67.90
2018-07-07T23:28:33.493Z,66.35
2018-07-07T23:31:00.850Z,65.35
2018-07-07T23:33:28.174Z,64.71
2018-07-07T23:35:55.617Z,65.01
2018-07-07T23:38:22.937Z,65.04
2018-07-07T23:40:50.329Z,64.72
2018-07-07T23:43:17.657Z,64.94
2018-07-07T23:45:44.893Z,65.06
2018-07-07T23:48:12.196Z,64.72
2018-07-07T23:50:39.506Z,64.78
2018-07-07T23:53:06.867Z,64.70
2018-07-07T23:55:34.387Z,65.35
2018-07-07T23:58:01.719Z,63.92
